Time;durP1;ratioP1;P1;durP2;ratioP2;P2;SDS_P1;SDS_P2;PMS_P1;PMS_P2;Temp;Humidity;BMP_temperature;BMP_pressure;BME280_temperature;BME280_humidity;BME280_pressure;Samples;Min_cycle;Max_cycle;Signal;HPM_P1;HPM_P2
2022/02/05 00:01:48;;;;;;;9.70;5.20;;;3.60;99.90;;;;;;5089166;28;20188;-57
2022/02/05 00:04:16;;;;;;;8.00;4.63;;;3.60;99.90;;;;;;5088925;28;20197;-57
2022/02/05 00:06:49;;;;;;;7.00;4.20;;;3.60;99.90;;;;;;5088695;28;20732;-59
2022/02/05 00:09:28;;;;;;;6.10;4.70;;;3.50;99.90;;;;;;5089044;28;20204;-58
2022/02/05 00:12:28;;;;;;;6.87;5.00;;;3.50;99.90;;;;;;5088548;28;20515;-53
2022/02/05 00:33:04;;;;;;;6.17;4.37;;;3.40;99.90;;;;;;5089632;28;20425;-59
2022/02/05 00:39:59;;;;;;;6.80;4.30;;;3.20;99.90;;;;;;5088352;28;20242;-58
2022/02/05 00:42:32;;;;;;;7.90;4.70;;;3.20;99.90;;;;;;5088605;28;20561;-57
2022/02/05 00:45:05;;;;;;;10.43;4.50;;;3.20;99.90;;;;;;5083352;28;20204;-56
2022/02/05 00:47:33;;;;;;;6.47;4.37;;;3.20;99.90;;;;;;5074655;28;20432;-59
2022/02/05 00:50:01;;;;;;;6.23;4.50;;;3.20;99.90;;;;;;5074549;28;20451;-59
2022/02/05 00:52:28;;;;;;;6.60;4.37;;;3.30;99.90;;;;;;5074542;28;20478;-59
2022/02/05 00:55:04;;;;;;;9.27;4.40;;;3.30;99.90;;;;;;5074296;28;20232;-61
2022/02/05 00:57:44;;;;;;;6.40;4.10;;;3.30;99.90;;;;;;5074390;28;20854;-59
2022/02/05 01:00:13;;;;;;;6.27;4.50;;;3.30;99.90;;;;;;5074472;28;20534;-60
2022/02/05 01:02:40;;;;;;;11.03;4.97;;;3.30;99.90;;;;;;5074421;28;20229;-60
2022/02/05 01:05:07;;;;;;;8.50;4.87;;;3.30;99.90;;;;;;5074742;28;20501;-59
2022/02/05 01:07:34;;;;;;;6.70;3.90;;;3.30;99.90;;;;;;5073947;28;20458;-60
2022/02/05 01:10:02;;;;;;;6.73;4.83;;;3.30;99.90;;;;;;5074335;28;20470;-56
2022/02/05 01:12:31;;;;;;;8.27;4.40;;;3.30;99.90;;;;;;5073674;28;20475;-58
2022/02/05 01:15:00;;;;;;;9.37;3.97;;;3.20;99.90;;;;;;5074186;28;20565;-58
2022/02/05 01:17:32;;;;;;;10.77;3.80;;;3.20;99.90;;;;;;5073929;28;20508;-58
2022/02/05 01:20:23;;;;;;;7.53;3.70;;;3.20;99.90;;;;;;5074377;28;20225;-57
2022/02/05 01:22:51;;;;;;;10.53;4.03;;;3.10;99.90;;;;;;5073679;28;20562;-60
2022/02/05 01:25:23;;;;;;;8.87;4.03;;;3.10;99.90;;;;;;5074040;28;20483;-59
2022/02/05 01:27:54;;;;;;;6.97;3.63;;;3.10;99.90;;;;;;5073359;28;20455;-60
2022/02/05 01:30:25;;;;;;;5.93;4.40;;;3.00;99.90;;;;;;5073972;28;20501;-60
2022/02/05 01:33:08;;;;;;;8.53;4.30;;;3.00;99.90;;;;;;5073375;28;20548;-60
2022/02/05 01:35:43;;;;;;;6.33;3.73;;;3.00;99.90;;;;;;5073923;28;20483;-60
2022/02/05 01:49:51;;;;;;;7.27;3.93;;;2.80;99.90;;;;;;5073269;28;20427;-60
2022/02/05 01:52:22;;;;;;;5.20;3.60;;;2.80;99.90;;;;;;5073191;28;20459;-60
2022/02/05 01:57:48;;;;;;;8.53;3.83;;;2.80;99.90;;;;;;5071755;28;20955;-59
2022/02/05 02:05:54;;;;;;;7.87;3.20;;;2.70;99.90;;;;;;5072962;28;20554;-56
2022/02/05 02:11:24;;;;;;;5.73;3.40;;;2.60;99.90;;;;;;5072756;28;20427;-58
2022/02/05 02:17:02;;;;;;;10.30;4.37;;;2.60;99.90;;;;;;5072438;28;20432;-58
2022/02/05 02:19:34;;;;;;;11.73;3.70;;;2.60;99.90;;;;;;5072681;28;20448;-58
2022/02/05 02:22:08;;;;;;;8.50;3.97;;;2.60;99.90;;;;;;5072495;28;20525;-57
2022/02/05 02:24:45;;;;;;;5.57;3.10;;;2.50;99.90;;;;;;5072688;28;20504;-58
2022/02/05 02:27:22;;;;;;;7.80;3.80;;;2.60;99.90;;;;;;5072563;28;20753;-58
2022/02/05 02:29:59;;;;;;;7.17;4.03;;;2.60;99.90;;;;;;5073005;28;20442;-57
2022/02/05 02:32:26;;;;;;;5.47;3.67;;;2.60;99.90;;;;;;5072460;28;20467;-58
2022/02/05 02:34:59;;;;;;;8.17;3.30;;;2.60;99.90;;;;;;5072322;28;20483;-59
2022/02/05 02:37:33;;;;;;;9.23;4.27;;;2.60;99.90;;;;;;5072325;28;20443;-58
2022/02/05 02:40:06;;;;;;;9.00;3.60;;;2.60;99.90;;;;;;5072110;28;20447;-56
2022/02/05 02:42:38;;;;;;;7.73;3.97;;;2.60;99.90;;;;;;5072502;28;20471;-56
2022/02/05 02:45:05;;;;;;;9.37;4.10;;;2.60;99.90;;;;;;5072343;28;20447;-58
2022/02/05 02:47:32;;;;;;;9.07;3.80;;;2.60;99.90;;;;;;5072457;28;20444;-57
2022/02/05 02:50:03;;;;;;;7.33;3.70;;;2.60;99.90;;;;;;5072294;28;20451;-58
2022/02/05 02:58:03;;;;;;;8.23;3.77;;;2.50;99.90;;;;;;5073759;28;20477;-56
2022/02/05 03:00:30;;;;;;;6.63;3.90;;;2.50;99.90;;;;;;5072518;28;20462;-58
2022/02/05 03:02:57;;;;;;;12.00;4.20;;;2.60;99.90;;;;;;5072137;28;20476;-58
2022/02/05 03:05:24;;;;;;;10.93;3.47;;;2.60;99.90;;;;;;5072068;28;20443;-58
2022/02/05 03:07:52;;;;;;;8.10;3.87;;;2.50;99.90;;;;;;5075547;28;20447;-57
2022/02/05 03:10:19;;;;;;;5.97;3.73;;;2.50;99.90;;;;;;5075490;28;20887;-59
2022/02/05 03:12:46;;;;;;;4.63;3.27;;;2.60;99.90;;;;;;5072900;28;20472;-57
2022/02/05 03:15:15;;;;;;;8.77;3.63;;;2.60;99.90;;;;;;5071680;28;20565;-59
2022/02/05 03:17:53;;;;;;;10.33;3.60;;;2.50;99.90;;;;;;5071582;28;20451;-58
2022/02/05 03:20:19;;;;;;;12.23;3.83;;;2.50;99.90;;;;;;5072105;28;20498;-59
2022/02/05 03:22:46;;;;;;;9.97;3.47;;;2.50;99.90;;;;;;5071637;28;20517;-59
2022/02/05 03:25:14;;;;;;;8.73;4.03;;;2.50;99.90;;;;;;5072041;28;20960;-58
2022/02/05 03:27:41;;;;;;;7.13;3.97;;;2.60;99.90;;;;;;5071673;28;20798;-58
2022/02/05 03:30:09;;;;;;;8.13;3.30;;;2.60;99.90;;;;;;5072245;28;20508;-59
2022/02/05 03:32:35;;;;;;;5.97;3.27;;;2.60;99.90;;;;;;5071870;28;20236;-58
2022/02/05 03:35:02;;;;;;;5.87;3.30;;;2.60;99.90;;;;;;5071512;28;20487;-56
2022/02/05 03:37:29;;;;;;;9.27;4.17;;;2.70;99.90;;;;;;5071351;28;20455;-57
2022/02/05 03:39:55;;;;;;;5.23;2.23;;;2.80;99.90;;;;;;5071594;28;20992;-53
2022/02/05 03:42:23;;;;;;;9.23;3.60;;;2.80;99.90;;;;;;5071462;28;21042;-60
2022/02/05 03:44:50;;;;;;;6.50;3.67;;;2.90;99.90;;;;;;5071702;28;20447;-57
2022/02/05 03:47:17;;;;;;;8.37;3.10;;;2.80;99.90;;;;;;5071630;28;20443;-58
2022/02/05 03:49:44;;;;;;;10.00;3.60;;;2.90;99.90;;;;;;5071600;28;20458;-60
2022/02/05 03:52:10;;;;;;;7.63;3.37;;;2.80;99.90;;;;;;5071600;28;20463;-57
2022/02/05 03:54:37;;;;;;;6.10;2.97;;;2.80;99.90;;;;;;5071317;28;21011;-59
2022/02/05 03:57:05;;;;;;;7.27;3.27;;;2.80;99.90;;;;;;5072115;28;20447;-61
2022/02/05 03:59:33;;;;;;;8.97;2.93;;;2.70;99.90;;;;;;5072200;28;20452;-59
2022/02/05 04:02:01;;;;;;;7.83;3.00;;;2.80;99.90;;;;;;5071783;28;20486;-58
2022/02/05 04:04:28;;;;;;;6.77;3.10;;;2.80;99.90;;;;;;5074136;28;20546;-60
2022/02/05 04:06:56;;;;;;;9.77;3.00;;;2.90;99.90;;;;;;5075674;28;20832;-60
2022/02/05 04:09:27;;;;;;;7.83;3.07;;;2.90;99.90;;;;;;5074580;28;20923;-59
2022/02/05 04:15:55;;;;;;;9.00;2.67;;;3.00;99.90;;;;;;5071465;28;20471;-60
2022/02/05 04:17:30;;;;;;;7.83;2.20;;;2.90;99.90;;;;;;5070967;28;20485;-59
2022/02/05 04:19:57;;;;;;;8.90;3.03;;;3.00;99.90;;;;;;5071693;28;21000;-59
2022/02/05 04:22:23;;;;;;;5.43;2.70;;;3.00;99.90;;;;;;5075100;28;20528;-60
2022/02/05 04:24:50;;;;;;;6.90;2.27;;;3.00;99.90;;;;;;5075338;28;20497;-59
2022/02/05 04:27:17;;;;;;;9.40;2.67;;;3.00;99.90;;;;;;5075474;28;20627;-60
2022/02/05 04:29:45;;;;;;;8.17;2.80;;;3.00;99.90;;;;;;5075789;28;20451;-61
2022/02/05 04:32:13;;;;;;;9.33;2.40;;;3.00;99.90;;;;;;5075323;28;20475;-61
2022/02/05 04:34:40;;;;;;;9.03;2.90;;;3.00;99.90;;;;;;5075150;28;20498;-60
2022/02/05 04:37:07;;;;;;;9.00;2.53;;;3.00;99.90;;;;;;5074677;28;20451;-60
2022/02/05 04:39:37;;;;;;;4.40;1.70;;;3.00;99.90;;;;;;5074667;28;20487;-60
2022/02/05 04:42:11;;;;;;;4.77;2.03;;;3.10;99.90;;;;;;5074686;28;20525;-60
2022/02/05 04:44:57;;;;;;;7.07;2.63;;;3.10;99.90;;;;;;5074591;28;20447;-60
2022/02/05 04:47:49;;;;;;;6.70;2.93;;;3.10;99.90;;;;;;5074351;28;20953;-58
2022/02/05 04:50:31;;;;;;;6.33;2.83;;;3.10;99.90;;;;;;5074638;28;20461;-60
2022/02/05 04:53:18;;;;;;;6.40;2.43;;;3.10;99.90;;;;;;5074348;28;20494;-60
2022/02/05 04:56:14;;;;;;;8.90;2.70;;;3.10;99.90;;;;;;5074616;28;20482;-60
2022/02/05 05:01:37;;;;;;;8.60;2.27;;;3.10;99.90;;;;;;5040806;28;20437;-60
2022/02/05 05:04:20;;;;;;;9.07;2.63;;;3.10;99.90;;;;;;5074473;28;21006;-59
2022/02/05 05:07:53;;;;;;;6.93;2.70;;;3.10;99.90;;;;;;5074479;28;20521;-59
2022/02/05 05:09:47;;;;;;;7.30;2.90;;;3.20;99.90;;;;;;5074186;28;20212;-60
2022/02/05 05:12:24;;;;;;;10.67;2.83;;;3.20;99.90;;;;;;5074197;28;20281;-60
2022/02/05 05:20:21;;;;;;;2.60;1.80;;;3.20;99.90;;;;;;5073868;28;20561;-60
2022/02/05 05:22:49;;;;;;;10.57;2.43;;;3.30;99.90;;;;;;5074324;28;20475;-58
2022/02/05 05:25:16;;;;;;;9.40;2.30;;;3.30;99.90;;;;;;5074136;28;20440;-58
2022/02/05 05:27:43;;;;;;;5.63;2.33;;;3.30;99.90;;;;;;5073739;28;20450;-60
2022/02/05 05:30:11;;;;;;;4.00;2.20;;;3.30;99.90;;;;;;5073871;28;20451;-59
2022/02/05 05:32:38;;;;;;;10.00;2.57;;;3.20;99.90;;;;;;5073325;28;20467;-60
2022/02/05 05:35:06;;;;;;;7.30;2.60;;;3.20;99.90;;;;;;5073377;28;20487;-60
2022/02/05 05:37:35;;;;;;;7.73;2.73;;;3.20;99.90;;;;;;5073546;28;20454;-60
2022/02/05 05:40:02;;;;;;;4.93;1.93;;;3.20;99.90;;;;;;5073841;28;20201;-60
2022/02/05 05:42:34;;;;;;;9.80;2.80;;;3.10;99.90;;;;;;5073420;28;20463;-60
2022/02/05 05:45:23;;;;;;;9.77;2.50;;;3.00;99.90;;;;;;5073548;28;20295;-58
2022/02/05 05:47:53;;;;;;;7.37;2.70;;;2.90;99.90;;;;;;5073369;28;20478;-58
2022/02/05 05:50:58;;;;;;;9.63;2.40;;;2.90;99.90;;;;;;5073411;28;20497;-59
2022/02/05 05:53:27;;;;;;;5.47;2.67;;;2.90;99.90;;;;;;5073408;28;20497;-59
2022/02/05 05:55:54;;;;;;;7.33;2.60;;;2.80;99.90;;;;;;5073367;28;20537;-58
2022/02/05 05:58:21;;;;;;;6.07;2.80;;;2.80;99.90;;;;;;5073141;28;20450;-58
2022/02/05 06:00:50;;;;;;;6.87;2.73;;;2.80;99.90;;;;;;5073461;28;20505;-58
2022/02/05 06:03:17;;;;;;;7.63;2.67;;;2.90;99.90;;;;;;5072946;28;20474;-58
2022/02/05 06:05:44;;;;;;;7.80;2.47;;;3.00;99.90;;;;;;5073176;28;20850;-59
2022/02/05 06:08:11;;;;;;;5.23;2.27;;;3.00;99.90;;;;;;5072695;28;20451;-57
2022/02/05 06:10:38;;;;;;;5.87;2.50;;;3.00;99.90;;;;;;5072871;28;20500;-54
2022/02/05 06:13:05;;;;;;;6.87;2.63;;;3.00;99.90;;;;;;5073121;28;20471;-56
2022/02/05 06:15:32;;;;;;;5.67;2.00;;;3.00;99.90;;;;;;5073810;28;20475;-54
2022/02/05 06:17:59;;;;;;;5.63;2.53;;;3.00;99.90;;;;;;5072855;28;20454;-58
2022/02/05 06:20:25;;;;;;;7.60;2.80;;;3.00;99.90;;;;;;5072659;28;20504;-58
2022/02/05 06:22:52;;;;;;;5.87;3.03;;;3.00;99.90;;;;;;5074983;28;20474;-58
2022/02/05 06:25:19;;;;;;;9.20;2.97;;;3.00;99.90;;;;;;5077932;28;20435;-58
2022/02/05 06:27:47;;;;;;;4.43;2.60;;;3.00;99.90;;;;;;5074415;28;20867;-59
2022/02/05 06:30:14;;;;;;;10.83;3.13;;;3.00;99.90;;;;;;5072696;28;20851;-59
2022/02/05 06:32:42;;;;;;;10.20;2.63;;;3.00;99.90;;;;;;5072453;28;20468;-58
2022/02/05 06:35:10;;;;;;;9.30;3.53;;;3.00;99.90;;;;;;5072405;28;21052;-60
2022/02/05 06:37:37;;;;;;;9.10;2.70;;;3.00;99.90;;;;;;5072387;28;20964;-59
2022/02/05 06:40:04;;;;;;;6.13;2.80;;;3.00;99.90;;;;;;5072684;28;20450;-60
2022/02/05 06:42:31;;;;;;;6.20;2.83;;;3.00;99.90;;;;;;5071910;28;20459;-59
2022/02/05 06:44:59;;;;;;;12.63;3.10;;;3.00;99.90;;;;;;5072243;28;20454;-59
2022/02/05 06:47:26;;;;;;;5.73;2.30;;;3.00;99.90;;;;;;5072161;28;20450;-60
2022/02/05 06:49:53;;;;;;;6.17;3.00;;;3.00;99.90;;;;;;5072022;28;20451;-60
2022/02/05 06:52:19;;;;;;;4.80;2.40;;;3.00;99.90;;;;;;5072205;28;20467;-60
2022/02/05 06:54:46;;;;;;;8.43;3.13;;;3.00;99.90;;;;;;5072372;28;20451;-59
2022/02/05 06:57:13;;;;;;;12.00;3.37;;;3.00;99.90;;;;;;5072126;28;20205;-60
2022/02/05 06:59:40;;;;;;;7.73;3.23;;;3.00;99.90;;;;;;5072236;28;20512;-60
2022/02/05 07:02:08;;;;;;;8.67;2.90;;;3.00;99.90;;;;;;5071927;28;20475;-57
2022/02/05 07:04:35;;;;;;;6.50;3.07;;;3.00;99.90;;;;;;5071873;28;20871;-60
2022/02/05 07:07:02;;;;;;;7.90;2.70;;;3.00;99.90;;;;;;5072071;28;20447;-59
2022/02/05 07:09:29;;;;;;;7.33;2.67;;;3.00;99.90;;;;;;5072024;28;20533;-59
2022/02/05 07:11:58;;;;;;;9.03;2.87;;;3.00;99.90;;;;;;5072065;28;20467;-59
2022/02/05 07:14:28;;;;;;;9.13;3.23;;;3.00;99.90;;;;;;5071859;28;20465;-60
2022/02/05 07:17:02;;;;;;;8.37;2.63;;;3.00;99.90;;;;;;5071702;28;20221;-60
2022/02/05 07:19:41;;;;;;;5.83;3.23;;;3.00;99.90;;;;;;5071997;28;20432;-58
2022/02/05 07:22:08;;;;;;;14.03;3.40;;;3.00;99.90;;;;;;5072036;28;20462;-60
2022/02/05 07:24:52;;;;;;;6.33;3.23;;;3.00;99.90;;;;;;5071916;28;20816;-60
2022/02/05 07:30:03;;;;;;;5.67;3.17;;;3.00;99.90;;;;;;5071697;28;20508;-58
2022/02/05 07:32:30;;;;;;;11.93;3.73;;;3.10;99.90;;;;;;5071729;28;21023;-55
2022/02/05 07:34:58;;;;;;;6.47;3.53;;;3.00;99.90;;;;;;5071965;28;21015;-60
2022/02/05 07:37:25;;;;;;;5.47;2.63;;;3.00;99.90;;;;;;5071970;28;20451;-60
2022/02/05 07:39:52;;;;;;;2.73;2.13;;;3.00;99.90;;;;;;5072665;28;20458;-60
2022/02/05 07:42:19;;;;;;;9.57;3.47;;;3.00;99.90;;;;;;5072334;28;20476;-59
2022/02/05 07:44:47;;;;;;;10.03;3.63;;;3.00;99.90;;;;;;5072694;28;20452;-60
2022/02/05 07:47:16;;;;;;;9.63;2.83;;;3.10;99.90;;;;;;5073371;28;20473;-60
2022/02/05 07:49:43;;;;;;;7.10;2.73;;;3.10;99.90;;;;;;5071857;28;20455;-59
2022/02/05 07:52:12;;;;;;;9.10;2.70;;;3.10;99.90;;;;;;5071488;28;20229;-60
2022/02/05 07:54:40;;;;;;;9.10;3.13;;;3.10;99.90;;;;;;5071663;28;20205;-60
2022/02/05 07:57:07;;;;;;;7.37;3.03;;;3.10;99.90;;;;;;5075428;28;20221;-61
2022/02/05 07:59:34;;;;;;;7.00;3.10;;;3.10;99.90;;;;;;5075572;28;20451;-60
2022/02/05 08:02:01;;;;;;;8.03;2.90;;;3.20;99.90;;;;;;5075565;28;20467;-60
2022/02/05 08:04:28;;;;;;;8.97;3.63;;;3.10;99.90;;;;;;5075246;28;20451;-61
2022/02/05 08:06:57;;;;;;;4.93;2.47;;;3.20;99.90;;;;;;5075212;28;20450;-60
2022/02/05 08:09:30;;;;;;;12.50;3.13;;;3.20;99.90;;;;;;5075381;28;20825;-60
2022/02/05 08:12:01;;;;;;;7.07;2.90;;;3.20;99.90;;;;;;5075239;28;20884;-60
2022/02/05 08:14:28;;;;;;;9.53;3.03;;;3.20;99.90;;;;;;5075229;28;20549;-60
2022/02/05 08:17:01;;;;;;;9.50;3.00;;;3.20;99.90;;;;;;5075258;28;20572;-60
2022/02/05 08:19:28;;;;;;;5.97;2.70;;;3.20;99.90;;;;;;5075604;28;20451;-59
2022/02/05 08:21:54;;;;;;;12.37;2.70;;;3.10;99.90;;;;;;5075402;28;20232;-59
2022/02/05 08:24:21;;;;;;;8.67;2.93;;;3.20;99.90;;;;;;5075108;28;20468;-60
2022/02/05 08:26:49;;;;;;;8.97;2.83;;;3.20;99.90;;;;;;5074837;28;20504;-60
2022/02/05 08:29:18;;;;;;;10.33;3.53;;;3.20;99.90;;;;;;5074906;28;20945;-57
2022/02/05 08:31:45;;;;;;;6.10;1.87;;;3.10;99.90;;;;;;5074757;28;20457;-58
2022/02/05 08:34:11;;;;;;;8.63;3.10;;;3.20;99.90;;;;;;5074565;28;20462;-59
2022/02/05 08:36:43;;;;;;;9.57;3.20;;;3.30;99.90;;;;;;5074533;28;20522;-60
2022/02/05 08:39:11;;;;;;;5.77;2.50;;;3.30;99.90;;;;;;5074910;28;20802;-60
2022/02/05 08:41:38;;;;;;;7.30;2.70;;;3.40;99.90;;;;;;5074666;28;20505;-59
2022/02/05 08:44:07;;;;;;;5.30;3.13;;;3.50;99.90;;;;;;5075126;28;20439;-60
2022/02/05 08:46:34;;;;;;;8.93;2.80;;;3.50;99.90;;;;;;5074342;28;20258;-60
2022/02/05 08:49:01;;;;;;;6.43;3.47;;;3.60;99.90;;;;;;5074856;28;20453;-60
2022/02/05 08:51:28;;;;;;;7.80;2.17;;;3.60;99.90;;;;;;5074376;28;20241;-60
2022/02/05 08:53:55;;;;;;;9.67;2.77;;;3.70;99.90;;;;;;5075398;28;20220;-59
2022/02/05 08:56:23;;;;;;;7.43;2.90;;;3.70;99.90;;;;;;5076836;28;20244;-59
2022/02/05 08:58:50;;;;;;;8.37;2.50;;;3.70;99.90;;;;;;5080713;28;20457;-60
2022/02/05 09:01:22;;;;;;;4.87;2.70;;;3.70;99.90;;;;;;5075071;28;20228;-59
2022/02/05 09:03:59;;;;;;;9.60;3.67;;;3.70;99.90;;;;;;5074533;28;20232;-59
2022/02/05 09:06:29;;;;;;;8.60;3.07;;;3.70;99.90;;;;;;5074100;28;20606;-60
2022/02/05 09:09:07;;;;;;;13.23;3.70;;;3.80;99.90;;;;;;5074464;28;20603;-60
2022/02/05 09:11:39;;;;;;;9.50;3.33;;;3.80;99.90;;;;;;5073964;28;20251;-59
2022/02/05 09:14:18;;;;;;;10.17;3.37;;;3.70;99.90;;;;;;5073832;28;20247;-61
2022/02/05 09:16:47;;;;;;;7.90;3.73;;;3.70;99.90;;;;;;5074062;28;20283;-60
2022/02/05 09:19:14;;;;;;;7.77;3.40;;;3.80;99.90;;;;;;5074006;28;20209;-59
2022/02/05 09:21:41;;;;;;;8.23;3.13;;;3.90;99.90;;;;;;5073979;28;20209;-59
2022/02/05 09:24:08;;;;;;;9.70;3.30;;;3.90;99.90;;;;;;5074056;28;20563;-60
2022/02/05 09:26:37;;;;;;;10.33;3.97;;;3.90;99.90;;;;;;5074835;28;20730;-60
2022/02/05 09:29:12;;;;;;;13.10;4.53;;;4.00;99.90;;;;;;5074479;28;20215;-61
2022/02/05 09:31:39;;;;;;;9.73;4.10;;;4.00;99.90;;;;;;5073898;28;20206;-60
2022/02/05 09:34:07;;;;;;;7.20;3.87;;;4.00;99.90;;;;;;5073860;28;20215;-60
2022/02/05 09:36:35;;;;;;;8.87;3.37;;;4.00;99.90;;;;;;5073426;28;20276;-58
2022/02/05 09:39:02;;;;;;;10.13;4.53;;;4.00;99.90;;;;;;5075667;28;20212;-57
2022/02/05 09:41:28;;;;;;;10.50;4.40;;;4.10;99.90;;;;;;5075466;28;20214;-60
2022/02/05 09:43:55;;;;;;;8.77;4.40;;;4.10;99.90;;;;;;5073621;28;20625;-56
2022/02/05 09:46:23;;;;;;;11.63;4.80;;;4.10;99.90;;;;;;5073391;28;20242;-55
2022/02/05 09:48:51;;;;;;;12.63;4.63;;;4.10;99.90;;;;;;5074360;28;20771;-60
2022/02/05 09:51:25;;;;;;;10.47;4.47;;;4.30;99.90;;;;;;5075382;28;20573;-59
2022/02/05 09:53:53;;;;;;;13.23;5.37;;;4.40;98.30;;;;;;5074706;28;20686;-60
2022/02/05 09:56:20;;;;;;;8.83;4.43;;;4.50;97.10;;;;;;5073172;28;20234;-61
2022/02/05 09:58:47;;;;;;;13.57;4.87;;;4.60;95.00;;;;;;5073568;28;20210;-61
2022/02/05 10:01:18;;;;;;;7.83;4.33;;;4.70;84.50;;;;;;5073182;28;20629;-61
2022/02/05 10:03:46;;;;;;;9.77;4.33;;;4.80;68.10;;;;;;5072977;28;20230;-61
2022/02/05 10:06:14;;;;;;;6.73;3.47;;;4.80;57.50;;;;;;5073074;28;20215;-60
2022/02/05 10:08:47;;;;;;;7.20;4.00;;;4.70;64.50;;;;;;5073443;28;20558;-61
2022/02/05 10:11:14;;;;;;;14.40;5.93;;;4.90;56.50;;;;;;5073479;28;20704;-61
2022/02/05 10:13:42;;;;;;;10.60;5.10;;;4.90;61.90;;;;;;5073035;28;20230;-59
2022/02/05 10:16:09;;;;;;;11.87;3.87;;;5.00;55.90;;;;;;5072675;28;20223;-60
2022/02/05 10:18:39;;;;;;;8.77;4.37;;;5.10;51.80;;;;;;5071924;28;20215;-60
2022/02/05 10:21:20;;;;;;;7.27;3.53;;;5.10;29.90;;;;;;5073126;28;20640;-60
2022/02/05 10:24:00;;;;;;;10.93;4.00;;;5.10;32.80;;;;;;5072832;28;20227;-60
2022/02/05 10:26:32;;;;;;;13.90;3.67;;;5.00;49.70;;;;;;5073087;28;20205;-61
2022/02/05 10:29:01;;;;;;;11.60;3.83;;;5.00;34.50;;;;;;5072978;28;20646;-60
2022/02/05 10:31:29;;;;;;;9.70;3.93;;;5.00;41.90;;;;;;5072996;28;20212;-60
2022/02/05 10:34:12;;;;;;;6.03;3.43;;;5.10;52.50;;;;;;5072566;28;20226;-59
2022/02/05 10:36:43;;;;;;;8.30;3.83;;;5.20;44.30;;;;;;5072765;28;20209;-56
2022/02/05 10:39:15;;;;;;;9.83;3.57;;;5.30;17.50;;;;;;5072352;28;20219;-58
2022/02/05 10:44:32;;;;;;;8.67;4.67;;;5.50;24.10;;;;;;5072465;28;20681;-61
2022/02/05 10:46:59;;;;;;;12.67;3.97;;;5.50;1.00;;;;;;5072238;28;20270;-60
2022/02/05 10:49:42;;;;;;;8.50;4.33;;;5.50;1.00;;;;;;5063517;28;20621;-64
2022/02/05 10:52:09;;;;;;;10.70;4.20;;;5.50;7.30;;;;;;5071932;28;20323;-61
2022/02/05 10:54:54;;;;;;;9.37;4.03;;;5.50;15.50;;;;;;5071945;28;20215;-64
2022/02/05 10:57:27;;;;;;;8.63;3.77;;;5.60;5.10;;;;;;5071271;28;20318;-63
2022/02/05 11:05:11;;;;;;;11.40;3.87;;;5.60;1.10;;;;;;5071532;28;20208;-64
2022/02/05 11:05:39;;;;;;;6.80;4.00;;;5.90;1.00;;;;;;5071732;28;20227;-62
2022/02/05 11:08:07;;;;;;;6.07;3.23;;;5.90;1.00;;;;;;5071514;28;20259;-61
2022/02/05 11:13:23;;;;;;;6.83;3.57;;;6.20;1.00;;;;;;5071469;28;20354;-64
2022/02/05 11:18:51;;;;;;;9.77;3.70;;;6.40;1.00;;;;;;5071213;28;20200;-58
2022/02/05 11:21:18;;;;;;;10.63;4.23;;;6.50;1.00;;;;;;5071820;28;20633;-59
2022/02/05 11:23:47;;;;;;;6.27;3.73;;;6.50;1.00;;;;;;5071584;28;20251;-55
2022/02/05 11:26:20;;;;;;;9.40;4.00;;;6.60;1.00;;;;;;5072746;28;20631;-60
2022/02/05 11:28:48;;;;;;;7.03;3.53;;;6.70;1.00;;;;;;5072372;28;20302;-59
2022/02/05 11:31:16;;;;;;;5.23;2.80;;;6.60;1.00;;;;;;5071586;28;20208;-53
2022/02/05 11:33:43;;;;;;;10.10;3.50;;;6.60;1.00;;;;;;5072236;28;20615;-58
2022/02/05 11:39:00;;;;;;;10.50;3.23;;;6.20;1.00;;;;;;5072462;28;20707;-59
2022/02/05 11:41:31;;;;;;;7.23;2.50;;;6.30;1.00;;;;;;5071221;28;20210;-60
2022/02/05 11:44:18;;;;;;;8.03;2.60;;;6.40;1.00;;;;;;5071651;28;20212;-59
2022/02/05 11:47:18;;;;;;;7.20;2.67;;;6.70;1.00;;;;;;5071322;28;20197;-60
2022/02/05 11:50:13;;;;;;;6.60;2.17;;;6.60;1.00;;;;;;5070826;28;20220;-59
2022/02/05 11:53:00;;;;;;;9.50;2.50;;;6.60;1.00;;;;;;5071131;28;20229;-60
2022/02/05 11:55:33;;;;;;;6.83;1.87;;;6.90;1.00;;;;;;5071471;28;20209;-58
2022/02/05 11:58:03;;;;;;;7.90;2.83;;;6.90;99.90;;;;;;5070573;28;20217;-60
2022/02/05 12:00:35;;;;;;;10.43;2.87;;;6.90;99.90;;;;;;5071003;28;20671;-58
2022/02/05 12:03:18;;;;;;;11.57;2.80;;;6.90;1.00;;;;;;5071144;28;20574;-59
2022/02/05 12:05:54;;;;;;;7.73;2.30;;;6.90;1.00;;;;;;5071595;28;20189;-58
2022/02/05 12:08:25;;;;;;;10.17;2.73;;;6.70;1.00;;;;;;5070853;28;20205;-61
2022/02/05 12:10:56;;;;;;;9.10;2.80;;;6.70;1.00;;;;;;5071011;28;20208;-63
2022/02/05 12:13:27;;;;;;;6.33;2.50;;;6.60;1.00;;;;;;5071282;28;20232;-63
2022/02/05 12:16:20;;;;;;;11.33;2.70;;;6.60;99.90;;;;;;5070958;28;20710;-62
2022/02/05 12:19:09;;;;;;;7.53;2.93;;;6.50;1.00;;;;;;5070972;28;20209;-62
2022/02/05 12:21:56;;;;;;;10.33;3.50;;;6.50;1.00;;;;;;5071449;28;20212;-61
2022/02/05 12:24:35;;;;;;;13.60;3.27;;;6.60;1.00;;;;;;5071089;28;20645;-60
2022/02/05 12:27:03;;;;;;;6.03;2.63;;;6.60;1.00;;;;;;5070827;28;20217;-61
2022/02/05 12:29:33;;;;;;;6.23;3.37;;;6.70;1.00;;;;;;5071018;28;20579;-61
2022/02/05 12:32:01;;;;;;;6.33;2.57;;;6.60;1.00;;;;;;5070770;28;20230;-60
2022/02/05 12:34:39;;;;;;;5.27;2.37;;;6.70;1.00;;;;;;5070735;28;20675;-62
2022/02/05 12:37:07;;;;;;;6.87;2.47;;;6.70;1.00;;;;;;5070732;28;20225;-62
2022/02/05 12:39:35;;;;;;;5.83;2.60;;;6.70;1.00;;;;;;5071102;28;20715;-58
2022/02/05 12:42:06;;;;;;;9.17;2.60;;;6.70;99.90;;;;;;5073928;28;20251;-59
2022/02/05 12:44:37;;;;;;;6.30;2.33;;;6.70;99.90;;;;;;5075400;28;20237;-57
2022/02/05 12:47:10;;;;;;;4.57;1.87;;;6.40;99.90;;;;;;5074774;28;20201;-57
2022/02/05 12:49:43;;;;;;;3.27;1.80;;;6.30;99.90;;;;;;5074230;28;20205;-59
2022/02/05 12:52:11;;;;;;;8.83;2.57;;;6.40;99.90;;;;;;5074501;28;20370;-56
2022/02/05 12:54:45;;;;;;;5.47;2.73;;;6.40;99.90;;;;;;5074507;28;20295;-57
2022/02/05 12:57:17;;;;;;;11.53;2.97;;;6.40;99.90;;;;;;5074323;28;20232;-58
2022/02/05 12:59:45;;;;;;;7.63;2.27;;;6.40;99.90;;;;;;5074552;28;20247;-55
2022/02/05 13:02:14;;;;;;;7.57;2.00;;;6.30;99.90;;;;;;5074860;28;20278;-58
2022/02/05 13:04:44;;;;;;;6.67;2.60;;;6.40;1.00;;;;;;5075276;28;20205;-58
2022/02/05 13:07:13;;;;;;;8.73;2.50;;;6.50;99.90;;;;;;5074814;28;20215;-59
2022/02/05 13:09:46;;;;;;;4.67;2.40;;;6.60;99.90;;;;;;5074452;28;20703;-59
2022/02/05 13:12:14;;;;;;;8.77;2.73;;;6.60;99.90;;;;;;5074945;28;20225;-57
2022/02/05 13:14:45;;;;;;;9.73;2.23;;;6.70;99.90;;;;;;5075202;28;20212;-57
2022/02/05 13:17:33;;;;;;;9.80;3.10;;;6.70;99.90;;;;;;5075178;28;20252;-59
2022/02/05 13:20:19;;;;;;;8.57;3.57;;;6.70;99.90;;;;;;5075328;28;20219;-58
2022/02/05 13:25:42;;;;;;;9.77;3.20;;;6.40;99.90;;;;;;5074080;28;20204;-60
2022/02/05 13:28:24;;;;;;;7.13;2.80;;;6.50;99.90;;;;;;5074027;28;20197;-58
2022/02/05 13:33:46;;;;;;;7.47;2.50;;;6.60;99.90;;;;;;5073802;28;20232;-59
2022/02/05 13:36:17;;;;;;;10.57;3.10;;;6.50;99.90;;;;;;5073357;28;20616;-59
2022/02/05 13:39:05;;;;;;;10.57;2.93;;;6.50;99.90;;;;;;5073680;28;20221;-60
2022/02/05 13:41:37;;;;;;;7.07;2.77;;;6.50;99.90;;;;;;5073710;28;20213;-58
2022/02/05 13:44:04;;;;;;;6.97;2.73;;;6.40;99.90;;;;;;5073571;28;20671;-59
2022/02/05 13:46:32;;;;;;;8.80;2.93;;;6.50;99.90;;;;;;5073049;28;20228;-61
2022/02/05 13:49:14;;;;;;;9.30;3.10;;;6.50;99.90;;;;;;5073558;28;20215;-59
2022/02/05 13:51:41;;;;;;;7.60;2.30;;;6.50;99.90;;;;;;5073472;28;20349;-59
2022/02/05 13:54:08;;;;;;;9.00;2.20;;;6.70;99.90;;;;;;5073305;28;20209;-61
2022/02/05 13:56:35;;;;;;;5.93;2.30;;;6.70;99.90;;;;;;5073158;28;20212;-57
2022/02/05 13:59:03;;;;;;;5.57;2.40;;;6.70;1.00;;;;;;5072995;28;20232;-60
2022/02/05 14:01:32;;;;;;;6.73;1.63;;;6.70;99.90;;;;;;5073380;28;20209;-58
2022/02/05 14:04:12;;;;;;;4.70;2.00;;;6.70;1.00;;;;;;5072980;28;20706;-59
2022/02/05 14:06:52;;;;;;;7.27;2.83;;;6.60;1.00;;;;;;5072970;28;20205;-58
2022/02/05 14:09:23;;;;;;;7.33;2.47;;;6.60;1.00;;;;;;5072921;28;20212;-63
2022/02/05 14:11:50;;;;;;;5.50;2.30;;;6.70;1.00;;;;;;5073204;28;20259;-58
2022/02/05 14:14:27;;;;;;;7.93;2.57;;;6.80;99.90;;;;;;5073248;28;20578;-59
2022/02/05 14:16:54;;;;;;;4.97;2.07;;;6.80;99.90;;;;;;5072478;28;20204;-58
2022/02/05 14:19:21;;;;;;;5.67;1.93;;;6.90;1.00;;;;;;5073077;28;20295;-59
2022/02/05 14:21:49;;;;;;;6.23;2.03;;;7.00;1.00;;;;;;5072537;28;20211;-60
2022/02/05 14:24:19;;;;;;;5.03;1.77;;;7.00;1.00;;;;;;5072963;28;20216;-59
2022/02/05 14:26:58;;;;;;;7.27;1.80;;;7.00;1.00;;;;;;5072460;28;20212;-59
2022/02/05 14:29:25;;;;;;;6.20;1.63;;;6.90;1.00;;;;;;5073259;28;20215;-60
2022/02/05 14:31:55;;;;;;;4.27;1.80;;;6.70;1.00;;;;;;5072477;28;20227;-62
2022/02/05 14:34:34;;;;;;;7.43;1.93;;;6.60;99.90;;;;;;5053226;28;20214;-55
2022/02/05 14:42:31;;;;;;;5.37;2.30;;;6.50;99.90;;;;;;5052684;28;20243;-58
2022/02/05 14:44:58;;;;;;;7.17;2.27;;;6.50;99.90;;;;;;5052699;28;20224;-63
2022/02/05 14:47:25;;;;;;;4.67;2.10;;;6.40;99.90;;;;;;5052006;28;20209;-65
2022/02/05 14:49:51;;;;;;;5.27;2.10;;;6.30;99.90;;;;;;5052627;28;20205;-64
2022/02/05 14:52:18;;;;;;;9.60;3.10;;;6.40;39.70;;;;;;5052174;28;20230;-62